Time;durP1;ratioP1;P1;durP2;ratioP2;P2;SDS_P1;SDS_P2;PMS_P1;PMS_P2;Temp;Humidity;BMP_temperature;BMP_pressure;BME280_temperature;BME280_humidity;BME280_pressure;Samples;Min_cycle;Max_cycle;Signal;HPM_P1;HPM_P2
2022/04/05 00:01:33;;;;;;;8.63;4.93;;;;;;;;;;4985916;28;20079;-77
2022/04/05 00:03:58;;;;;;;8.43;5.05;;;;;;;;;;4978320;28;20490;-77
2022/04/05 00:06:24;;;;;;;7.75;5.18;;;;;;;;;;4977646;28;20426;-78
2022/04/05 00:08:49;;;;;;;9.82;5.88;;;;;;;;;;4975793;28;20023;-77
2022/04/05 00:11:14;;;;;;;8.00;5.43;;;;;;;;;;4975162;28;20430;-75
2022/04/05 00:13:39;;;;;;;8.70;5.43;;;;;;;;;;4977087;28;20421;-76
2022/04/05 00:16:05;;;;;;;8.30;5.38;;;;;;;;;;4981110;28;20072;-79
2022/04/05 00:18:30;;;;;;;8.07;5.10;;;;;;;;;;4986833;28;20018;-78
2022/04/05 00:20:55;;;;;;;8.00;5.45;;;;;;;;;;4977683;28;20398;-78
2022/04/05 00:23:21;;;;;;;7.85;5.32;;;;;;;;;;4974885;28;20062;-78
2022/04/05 00:25:46;;;;;;;9.07;5.90;;;;;;;;;;4975190;28;20023;-79
2022/04/05 00:28:11;;;;;;;8.13;5.30;;;;;;;;;;4974178;28;20138;-78
2022/04/05 00:30:36;;;;;;;9.50;6.32;;;;;;;;;;4972513;28;20501;-76
2022/04/05 00:33:01;;;;;;;10.02;6.05;;;;;;;;;;4981179;28;20030;-77
2022/04/05 00:35:27;;;;;;;9.13;5.85;;;;;;;;;;4986011;28;20023;-78
2022/04/05 00:37:52;;;;;;;9.95;5.75;;;;;;;;;;4976207;28;20019;-78
2022/04/05 00:40:17;;;;;;;8.88;6.05;;;;;;;;;;4973902;28;20046;-76
2022/04/05 00:42:42;;;;;;;9.70;6.53;;;;;;;;;;4972901;28;20023;-78
2022/04/05 00:45:09;;;;;;;8.43;5.75;;;;;;;;;;4972081;28;20030;-77
2022/04/05 00:47:35;;;;;;;8.00;5.72;;;;;;;;;;4972603;28;20081;-78
2022/04/05 00:50:00;;;;;;;11.20;6.50;;;;;;;;;;4977608;28;20470;-79
2022/04/05 00:52:27;;;;;;;13.27;7.03;;;;;;;;;;4975673;28;20051;-77
2022/04/05 00:54:54;;;;;;;9.90;6.30;;;;;;;;;;4974168;28;20496;-77
2022/04/05 00:57:21;;;;;;;11.75;7.22;;;;;;;;;;4972879;28;20096;-78
2022/04/05 00:59:47;;;;;;;10.88;6.75;;;;;;;;;;4974049;28;20030;-78
2022/04/05 01:02:22;;;;;;;10.32;6.72;;;;;;;;;;4973655;28;20023;-77
2022/04/05 01:04:48;;;;;;;11.60;7.78;;;;;;;;;;4975971;28;20505;-76
2022/04/05 01:07:15;;;;;;;11.80;6.38;;;;;;;;;;4985601;28;20023;-77
2022/04/05 01:09:40;;;;;;;11.52;6.80;;;;;;;;;;4976924;28;20030;-77
2022/04/05 01:12:09;;;;;;;11.50;7.05;;;;;;;;;;4975683;28;20042;-77
2022/04/05 01:14:36;;;;;;;13.05;7.57;;;;;;;;;;4978305;28;20027;-78
2022/04/05 01:17:03;;;;;;;9.55;6.15;;;;;;;;;;4975756;28;20015;-77
2022/04/05 01:19:28;;;;;;;12.55;6.80;;;;;;;;;;4976602;28;20477;-78
2022/04/05 01:21:53;;;;;;;11.52;7.47;;;;;;;;;;4976579;28;20037;-78
2022/04/05 01:24:19;;;;;;;10.57;6.60;;;;;;;;;;4988589;28;20034;-77
2022/04/05 01:26:44;;;;;;;10.48;7.07;;;;;;;;;;4980809;28;20023;-78
2022/04/05 01:29:09;;;;;;;10.80;6.75;;;;;;;;;;4975366;28;20022;-78
2022/04/05 01:31:38;;;;;;;12.20;7.28;;;;;;;;;;4976418;28;20015;-79
2022/04/05 01:34:04;;;;;;;12.00;7.28;;;;;;;;;;4977355;28;20506;-78
2022/04/05 01:36:29;;;;;;;12.55;6.88;;;;;;;;;;4977119;28;20058;-78
2022/04/05 01:38:54;;;;;;;13.20;6.55;;;;;;;;;;4975687;28;20014;-78
2022/04/05 01:41:20;;;;;;;10.20;6.90;;;;;;;;;;4981999;28;20062;-79
2022/04/05 01:43:45;;;;;;;11.43;6.85;;;;;;;;;;4976603;28;20018;-78
2022/04/05 01:46:10;;;;;;;12.30;7.45;;;;;;;;;;4976756;28;20470;-78
2022/04/05 01:48:35;;;;;;;10.18;6.78;;;;;;;;;;4975423;28;20046;-78
2022/04/05 01:51:00;;;;;;;11.70;7.13;;;;;;;;;;4975045;28;20022;-78
2022/04/05 01:53:26;;;;;;;11.52;7.40;;;;;;;;;;4976835;28;20054;-78
2022/04/05 01:55:51;;;;;;;10.27;6.40;;;;;;;;;;4974406;28;20023;-78
2022/04/05 01:58:16;;;;;;;10.63;6.80;;;;;;;;;;4983797;28;20470;-78
2022/04/05 02:00:41;;;;;;;11.50;6.90;;;;;;;;;;4979817;28;20031;-79
2022/04/05 02:03:07;;;;;;;10.75;6.75;;;;;;;;;;4975870;28;20022;-78
2022/04/05 02:05:32;;;;;;;9.85;6.13;;;;;;;;;;4976123;28;20033;-78
2022/04/05 02:07:57;;;;;;;10.57;5.68;;;;;;;;;;4976072;28;20027;-78
2022/04/05 02:10:22;;;;;;;11.38;6.78;;;;;;;;;;4975916;28;20015;-78
2022/04/05 02:12:47;;;;;;;13.52;6.85;;;;;;;;;;4975412;28;20026;-78
2022/04/05 02:15:13;;;;;;;12.00;6.18;;;;;;;;;;4983657;28;20046;-78
2022/04/05 02:17:38;;;;;;;8.77;5.47;;;;;;;;;;4986736;28;20018;-78
2022/04/05 02:20:04;;;;;;;10.75;6.30;;;;;;;;;;4974771;28;20391;-79
2022/04/05 02:22:29;;;;;;;10.68;5.60;;;;;;;;;;4975861;28;20057;-79
2022/04/05 02:24:55;;;;;;;10.85;6.32;;;;;;;;;;4977334;28;20019;-78
2022/04/05 02:27:20;;;;;;;10.35;5.85;;;;;;;;;;4976081;28;20463;-77
2022/04/05 02:29:45;;;;;;;9.82;5.88;;;;;;;;;;4977885;28;20105;-77
2022/04/05 02:32:10;;;;;;;10.20;5.63;;;;;;;;;;4985306;28;20393;-77
2022/04/05 02:34:35;;;;;;;11.32;5.53;;;;;;;;;;4980720;28;20094;-78
2022/04/05 02:37:01;;;;;;;9.63;5.50;;;;;;;;;;4974750;28;20114;-77
2022/04/05 02:39:26;;;;;;;9.48;5.38;;;;;;;;;;4976176;28;20018;-77
2022/04/05 02:41:51;;;;;;;9.88;5.38;;;;;;;;;;4975309;28;20026;-78
2022/04/05 02:44:16;;;;;;;8.80;4.95;;;;;;;;;;4975203;28;20385;-77
2022/04/05 02:46:41;;;;;;;9.25;5.53;;;;;;;;;;4976541;28;20034;-77
2022/04/05 02:49:08;;;;;;;9.18;5.47;;;;;;;;;;4981615;28;20034;-78
2022/04/05 02:51:34;;;;;;;10.85;4.97;;;;;;;;;;4977634;28;20019;-78
2022/04/05 02:53:59;;;;;;;10.13;5.13;;;;;;;;;;4976852;28;20478;-78
2022/04/05 02:56:24;;;;;;;8.32;4.90;;;;;;;;;;4975808;28;20533;-78
2022/04/05 02:58:49;;;;;;;8.73;4.97;;;;;;;;;;4957284;28;20019;-77
2022/04/05 03:01:15;;;;;;;7.85;4.30;;;;;;;;;;4959091;28;20477;-78
2022/04/05 03:03:40;;;;;;;8.32;5.07;;;;;;;;;;4979103;28;20469;-77
2022/04/05 03:06:06;;;;;;;7.75;4.47;;;;;;;;;;4982504;28;20097;-77
2022/04/05 03:08:31;;;;;;;8.73;4.82;;;;;;;;;;4977229;28;20019;-77
2022/04/05 03:10:56;;;;;;;9.07;4.80;;;;;;;;;;4975040;28;20537;-78
2022/04/05 03:13:22;;;;;;;8.63;4.75;;;;;;;;;;4973630;28;20483;-77
2022/04/05 03:15:47;;;;;;;7.85;4.63;;;;;;;;;;4975284;28;20473;-76
2022/04/05 03:18:12;;;;;;;9.98;5.00;;;;;;;;;;4972283;28;20018;-78
2022/04/05 03:20:37;;;;;;;7.55;4.32;;;;;;;;;;4979453;28;20050;-78
2022/04/05 03:23:04;;;;;;;8.70;3.90;;;;;;;;;;4976509;28;20014;-77
2022/04/05 03:25:29;;;;;;;8.65;4.57;;;;;;;;;;4975042;28;20394;-78
2022/04/05 03:27:55;;;;;;;8.60;4.40;;;;;;;;;;4974724;28;20101;-77
2022/04/05 03:30:21;;;;;;;10.25;5.00;;;;;;;;;;4974057;28;20030;-78
2022/04/05 03:32:46;;;;;;;8.18;4.15;;;;;;;;;;4973528;28;20117;-77
2022/04/05 03:35:12;;;;;;;7.68;3.88;;;;;;;;;;4977476;28;20553;-78
2022/04/05 03:37:37;;;;;;;8.23;4.32;;;;;;;;;;4981779;28;20015;-78
2022/04/05 03:40:03;;;;;;;7.90;4.30;;;;;;;;;;4976082;28;20011;-77
2022/04/05 03:42:29;;;;;;;7.20;3.83;;;;;;;;;;4974581;28;20050;-78
2022/04/05 03:44:54;;;;;;;7.57;4.03;;;;;;;;;;4974637;28;20026;-78
2022/04/05 03:47:19;;;;;;;8.55;4.25;;;;;;;;;;4974538;28;20030;-77
2022/04/05 03:49:44;;;;;;;7.00;3.65;;;;;;;;;;4975171;28;20062;-78
2022/04/05 03:52:10;;;;;;;8.23;4.55;;;;;;;;;;4980473;28;20544;-78
2022/04/05 03:54:35;;;;;;;8.32;4.50;;;;;;;;;;4985335;28;20026;-77
2022/04/05 03:57:00;;;;;;;7.20;3.90;;;;;;;;;;4975458;28;20019;-76
2022/04/05 03:59:26;;;;;;;10.13;4.10;;;;;;;;;;4975500;28;20426;-76
2022/04/05 04:01:51;;;;;;;8.10;4.32;;;;;;;;;;4976496;28;20022;-78
2022/04/05 04:04:16;;;;;;;8.45;4.22;;;;;;;;;;4978110;28;20019;-77
2022/04/05 04:06:42;;;;;;;11.63;4.55;;;;;;;;;;4980340;28;20090;-77
2022/04/05 04:09:07;;;;;;;7.75;4.03;;;;;;;;;;4984509;28;20042;-77
2022/04/05 04:11:32;;;;;;;8.70;4.45;;;;;;;;;;4980052;28;20023;-77
2022/04/05 04:13:58;;;;;;;8.90;3.95;;;;;;;;;;4978335;28;20038;-77
2022/04/05 04:16:23;;;;;;;6.55;3.95;;;;;;;;;;4976894;28;20038;-77
2022/04/05 04:18:49;;;;;;;10.30;4.10;;;;;;;;;;4977912;28;20019;-77
2022/04/05 04:21:14;;;;;;;10.80;4.63;;;;;;;;;;4981583;28;20015;-76
2022/04/05 04:23:39;;;;;;;7.60;4.32;;;;;;;;;;4984833;28;20093;-78
2022/04/05 04:26:05;;;;;;;7.70;4.47;;;;;;;;;;4983677;28;20505;-76
2022/04/05 04:28:31;;;;;;;7.55;4.45;;;;;;;;;;4981419;28;20027;-77
2022/04/05 04:30:56;;;;;;;9.77;4.68;;;;;;;;;;4979783;28;20416;-76
2022/04/05 04:33:21;;;;;;;8.45;4.85;;;;;;;;;;4974775;28;20107;-79
2022/04/05 04:35:46;;;;;;;8.82;4.80;;;;;;;;;;4974319;28;20023;-77
2022/04/05 04:38:12;;;;;;;7.28;4.97;;;;;;;;;;4977865;28;20389;-75
2022/04/05 04:40:38;;;;;;;7.63;4.50;;;;;;;;;;4978126;28;20045;-77
2022/04/05 04:43:03;;;;;;;10.38;5.50;;;;;;;;;;4983679;28;20047;-77
2022/04/05 04:45:31;;;;;;;9.23;5.15;;;;;;;;;;4991015;28;20019;-78
2022/04/05 04:47:56;;;;;;;10.02;5.60;;;;;;;;;;4982731;28;20288;-78
2022/04/05 04:50:21;;;;;;;8.45;5.45;;;;;;;;;;4982288;28;20697;-77
2022/04/05 04:52:46;;;;;;;12.13;6.50;;;;;;;;;;4984834;28;20386;-76
2022/04/05 04:55:12;;;;;;;9.85;5.72;;;;;;;;;;4985457;28;20398;-79
2022/04/05 04:57:37;;;;;;;10.57;6.05;;;;;;;;;;4982091;28;20055;-77
2022/04/05 05:00:03;;;;;;;11.40;5.97;;;;;;;;;;4976682;28;20034;-78
2022/04/05 05:02:28;;;;;;;9.63;6.13;;;;;;;;;;4982475;28;20034;-78
2022/04/05 05:04:53;;;;;;;11.27;5.72;;;;;;;;;;4978241;28;20034;-77
2022/04/05 05:07:18;;;;;;;11.05;6.43;;;;;;;;;;4978625;28;20474;-77
2022/04/05 05:09:44;;;;;;;12.30;5.63;;;;;;;;;;4977723;28;20062;-78
2022/04/05 05:12:13;;;;;;;13.07;6.57;;;;;;;;;;4978160;28;20027;-78
2022/04/05 05:14:39;;;;;;;11.68;6.40;;;;;;;;;;4980052;28;20054;-78
2022/04/05 05:17:04;;;;;;;12.57;7.10;;;;;;;;;;4977229;28;20434;-77
2022/04/05 05:19:29;;;;;;;13.95;6.32;;;;;;;;;;4991690;28;20050;-78
2022/04/05 05:21:57;;;;;;;13.55;6.47;;;;;;;;;;4979685;28;20490;-78
2022/04/05 05:24:22;;;;;;;11.65;6.55;;;;;;;;;;4978764;28;20066;-77
2022/04/05 05:26:48;;;;;;;13.65;7.00;;;;;;;;;;4978576;28;20034;-77
2022/04/05 05:29:13;;;;;;;12.07;7.15;;;;;;;;;;4978871;28;20510;-77
2022/04/05 05:31:38;;;;;;;13.13;7.47;;;;;;;;;;4977663;28;20025;-77
2022/04/05 05:34:03;;;;;;;13.68;7.22;;;;;;;;;;4977148;28;20429;-77
2022/04/05 05:36:29;;;;;;;18.98;8.50;;;;;;;;;;4987663;28;20019;-77
2022/04/05 05:38:54;;;;;;;16.92;8.55;;;;;;;;;;4983773;28;20111;-78
2022/04/05 05:41:19;;;;;;;18.20;7.97;;;;;;;;;;4980988;28;20018;-78
2022/04/05 05:43:45;;;;;;;17.05;8.52;;;;;;;;;;4980860;28;20061;-78
2022/04/05 05:46:11;;;;;;;21.77;9.05;;;;;;;;;;4979811;28;20018;-78
2022/04/05 05:48:36;;;;;;;14.48;8.38;;;;;;;;;;4980781;28;20029;-78
2022/04/05 05:51:02;;;;;;;15.77;8.23;;;;;;;;;;4978920;28;20019;-77
2022/04/05 05:53:27;;;;;;;15.95;8.82;;;;;;;;;;4976091;28;20038;-76
2022/04/05 05:55:53;;;;;;;18.73;9.27;;;;;;;;;;4977448;28;20027;-77
2022/04/05 05:58:18;;;;;;;15.45;9.52;;;;;;;;;;4975573;28;20045;-77
2022/04/05 06:00:43;;;;;;;16.83;8.73;;;;;;;;;;4978743;28;20094;-78
2022/04/05 06:03:09;;;;;;;16.70;9.23;;;;;;;;;;4977198;28;20022;-78
2022/04/05 06:05:34;;;;;;;15.52;9.10;;;;;;;;;;4977327;28;20030;-77
2022/04/05 06:08:00;;;;;;;15.52;8.93;;;;;;;;;;4976190;28;20033;-76
2022/04/05 06:10:25;;;;;;;13.88;8.98;;;;;;;;;;4988556;28;20030;-76
2022/04/05 06:12:51;;;;;;;15.32;8.95;;;;;;;;;;4980204;28;20049;-77
2022/04/05 06:15:17;;;;;;;16.88;8.93;;;;;;;;;;4978839;28;20018;-77
2022/04/05 06:17:43;;;;;;;13.38;7.93;;;;;;;;;;4977458;28;20031;-77
2022/04/05 06:20:09;;;;;;;13.02;8.23;;;;;;;;;;4977221;28;20098;-77
2022/04/05 06:22:44;;;;;;;12.23;7.20;;;;;;;;;;4977706;28;20113;-77
2022/04/05 06:25:11;;;;;;;12.38;7.93;;;;;;;;;;4976417;28;20035;-78
2022/04/05 06:27:37;;;;;;;12.70;8.10;;;;;;;;;;4984200;28;20114;-76
2022/04/05 06:30:03;;;;;;;12.07;7.32;;;;;;;;;;4975704;28;20034;-76
2022/04/05 06:32:28;;;;;;;11.65;7.07;;;;;;;;;;4978197;28;20053;-77
2022/04/05 06:34:53;;;;;;;12.80;7.03;;;;;;;;;;4975788;28;20407;-76
2022/04/05 06:37:19;;;;;;;10.82;6.75;;;;;;;;;;4975783;28;20019;-78
2022/04/05 06:39:44;;;;;;;9.90;6.45;;;;;;;;;;4975654;28;20057;-76
2022/04/05 06:42:09;;;;;;;13.57;8.07;;;;;;;;;;4975448;28;20015;-77
2022/04/05 06:44:34;;;;;;;10.45;6.50;;;;;;;;;;4987091;28;20026;-77
2022/04/05 06:46:59;;;;;;;12.07;7.10;;;;;;;;;;4975093;28;20022;-77
2022/04/05 06:49:25;;;;;;;10.73;7.13;;;;;;;;;;4979050;28;20618;-77
2022/04/05 06:51:50;;;;;;;11.35;6.60;;;;;;;;;;4976990;28;20015;-77
2022/04/05 06:54:15;;;;;;;10.75;6.20;;;;;;;;;;4975952;28;20502;-78
2022/04/05 06:56:40;;;;;;;8.02;4.75;;;;;;;;;;4975297;28;20066;-78
2022/04/05 06:59:05;;;;;;;7.25;4.90;;;;;;;;;;4979696;28;20045;-76
2022/04/05 07:01:32;;;;;;;7.97;5.50;;;;;;;;;;4987939;28;20019;-77
2022/04/05 07:03:58;;;;;;;7.25;4.82;;;;;;;;;;4975474;28;20038;-77
2022/04/05 07:06:23;;;;;;;8.02;4.68;;;;;;;;;;4976341;28;20023;-77
2022/04/05 07:08:50;;;;;;;6.35;4.20;;;;;;;;;;4976908;28;20544;-77
2022/04/05 07:11:15;;;;;;;9.00;4.07;;;;;;;;;;4974578;28;20482;-78
2022/04/05 07:13:40;;;;;;;4.97;3.20;;;;;;;;;;4978140;28;20153;-78
2022/04/05 07:16:06;;;;;;;4.18;2.95;;;;;;;;;;4985434;28;20161;-76
2022/04/05 07:18:31;;;;;;;8.68;2.70;;;;;;;;;;4980727;28;20394;-77
2022/04/05 07:20:56;;;;;;;3.65;2.20;;;;;;;;;;4975564;28;20489;-77
2022/04/05 07:23:22;;;;;;;4.70;2.45;;;;;;;;;;4976875;28;20014;-76
2022/04/05 07:25:47;;;;;;;4.03;1.77;;;;;;;;;;4974860;28;20031;-77
2022/04/05 07:28:15;;;;;;;6.60;2.30;;;;;;;;;;4976155;28;20019;-77
2022/04/05 07:30:40;;;;;;;2.00;1.23;;;;;;;;;;4977680;28;20030;-77
2022/04/05 07:33:05;;;;;;;4.35;1.48;;;;;;;;;;4986293;28;20334;-77
2022/04/05 07:35:30;;;;;;;3.20;1.75;;;;;;;;;;4977853;28;20363;-77
2022/04/05 07:37:55;;;;;;;3.08;1.55;;;;;;;;;;4977201;28;20038;-77
2022/04/05 07:40:21;;;;;;;3.53;1.77;;;;;;;;;;4973598;28;20074;-78
2022/04/05 07:42:46;;;;;;;4.57;2.42;;;;;;;;;;4985585;28;20410;-78
2022/04/05 07:45:12;;;;;;;4.10;2.22;;;;;;;;;;4979869;28;20026;-78
2022/04/05 07:47:39;;;;;;;3.85;2.53;;;;;;;;;;4978402;28;20033;-77
2022/04/05 07:50:05;;;;;;;5.22;2.15;;;;;;;;;;4977028;28;20023;-77
2022/04/05 07:52:30;;;;;;;3.85;2.25;;;;;;;;;;4978151;28;20054;-77
2022/04/05 07:54:56;;;;;;;4.90;2.60;;;;;;;;;;4978462;28;20019;-75
2022/04/05 07:57:21;;;;;;;3.70;2.33;;;;;;;;;;4978391;28;20029;-76
2022/04/05 07:59:46;;;;;;;4.32;2.15;;;;;;;;;;4977342;28;20027;-76
2022/04/05 08:02:11;;;;;;;5.72;2.13;;;;;;;;;;4978963;28;20030;-76
2022/04/05 08:04:36;;;;;;;4.40;2.10;;;;;;;;;;4977216;28;20547;-77
2022/04/05 08:07:02;;;;;;;4.05;2.03;;;;;;;;;;4978223;28;20382;-77
2022/04/05 08:09:27;;;;;;;4.07;1.95;;;;;;;;;;4980644;28;20018;-76
2022/04/05 08:11:53;;;;;;;2.78;1.50;;;;;;;;;;4977863;28;20019;-78
2022/04/05 08:14:18;;;;;;;3.53;1.58;;;;;;;;;;4974102;28;20367;-76
2022/04/05 08:16:43;;;;;;;3.20;1.40;;;;;;;;;;4976756;28;20547;-77
2022/04/05 08:19:09;;;;;;;2.72;1.10;;;;;;;;;;4977764;28;20015;-76
2022/04/05 08:21:35;;;;;;;3.50;1.65;;;;;;;;;;4977499;28;20019;-77
2022/04/05 08:24:00;;;;;;;3.70;1.73;;;;;;;;;;4979674;28;20371;-77
2022/04/05 08:26:26;;;;;;;2.13;1.10;;;;;;;;;;4979779;28;20092;-76
2022/04/05 09:02:27;;;;;;;4.05;1.40;;;;;;;;;;5613059;23;20100;-77
2022/04/05 09:04:52;;;;;;;4.43;1.60;;;;;;;;;;4990086;28;20142;-76
2022/04/05 09:07:19;;;;;;;7.82;1.80;;;;;;;;;;4975318;28;20474;-78
2022/04/05 09:09:44;;;;;;;7.72;1.75;;;;;;;;;;4976755;28;20038;-76
2022/04/05 09:12:15;;;;;;;4.45;1.75;;;;;;;;;;4977186;28;20023;-78
2022/04/05 09:14:43;;;;;;;4.82;2.00;;;;;;;;;;4976531;28;20478;-78
2022/04/05 09:17:14;;;;;;;7.13;1.48;;;;;;;;;;4976629;28;20022;-78
2022/04/05 09:19:45;;;;;;;7.30;1.83;;;;;;;;;;4980685;28;20022;-79
2022/04/05 09:22:11;;;;;;;3.67;1.67;;;;;;;;;;4980858;28;20050;-79
2022/04/05 09:24:37;;;;;;;4.82;1.63;;;;;;;;;;4974992;28;20054;-77
2022/04/05 09:27:02;;;;;;;4.43;1.67;;;;;;;;;;4974953;28;20030;-78
2022/04/05 09:29:38;;;;;;;5.72;1.83;;;;;;;;;;4979283;28;20463;-78
2022/04/05 09:32:03;;;;;;;3.60;1.90;;;;;;;;;;4974760;28;20045;-79
2022/04/05 10:05:53;;;;;;;6.70;1.92;;;;;;;;;;5520726;23;20042;-85
2022/04/05 10:08:19;;;;;;;5.30;1.97;;;;;;;;;;5441374;23;20022;-83
2022/04/05 10:16:00;;;;;;;4.75;1.85;;;;;;;;;;5643339;23;20042;-85
2022/04/05 10:28:52;;;;;;;5.28;2.17;;;;;;;;;;5689633;22;20177;-83
2022/04/05 10:31:26;;;;;;;9.25;2.00;;;;;;;;;;5602679;23;20025;-82
2022/04/05 10:41:43;;;;;;;5.28;2.10;;;;;;;;;;5292987;23;20119;-83
2022/04/05 10:46:51;;;;;;;6.13;2.40;;;;;;;;;;5704719;23;20025;-82
2022/04/05 11:43:39;;;;;;;4.75;2.75;;;;;;;;;;5583794;23;20101;-82
2022/04/05 14:31:26;;;;;;;3.17;1.70;;;;;;;;;;5446318;23;20051;-81
2022/04/05 14:33:52;;;;;;;3.00;1.73;;;;;;;;;;4988284;28;20030;-80
2022/04/05 14:36:17;;;;;;;3.05;1.75;;;;;;;;;;4988849;28;20080;-81
2022/04/05 14:38:43;;;;;;;3.22;1.67;;;;;;;;;;4987358;28;20113;-80
2022/04/05 14:41:08;;;;;;;5.47;1.95;;;;;;;;;;4978424;28;20399;-79
2022/04/05 14:43:34;;;;;;;3.00;1.70;;;;;;;;;;4978781;28;20046;-80
2022/04/05 14:45:59;;;;;;;3.60;1.73;;;;;;;;;;4990740;28;20053;-81
2022/04/05 14:48:24;;;;;;;4.32;2.30;;;;;;;;;;4988749;28;20054;-81
2022/04/05 14:50:50;;;;;;;4.00;1.92;;;;;;;;;;4987681;28;20033;-79
2022/04/05 14:53:15;;;;;;;3.80;2.08;;;;;;;;;;4982545;28;20169;-79
2022/04/05 14:55:41;;;;;;;4.60;1.92;;;;;;;;;;4980343;28;20035;-81
2022/04/05 14:58:06;;;;;;;3.10;1.90;;;;;;;;;;4978077;28;20041;-80
2022/04/05 15:00:32;;;;;;;3.97;2.17;;;;;;;;;;4983234;28;20046;-81
2022/04/05 15:02:57;;;;;;;3.95;2.00;;;;;;;;;;4985497;28;20466;-81
2022/04/05 15:05:24;;;;;;;3.50;1.98;;;;;;;;;;4987706;28;20050;-80
2022/04/05 15:07:49;;;;;;;4.65;2.40;;;;;;;;;;4985239;28;20039;-81
2022/04/05 15:10:14;;;;;;;3.53;2.25;;;;;;;;;;4984811;28;20054;-81
2022/04/05 15:12:42;;;;;;;4.03;2.47;;;;;;;;;;4984545;28;20110;-83
2022/04/05 15:15:08;;;;;;;3.58;2.53;;;;;;;;;;4996262;28;20065;-83
2022/04/05 15:17:33;;;;;;;3.78;2.33;;;;;;;;;;4988424;28;20015;-80
2022/04/05 15:19:58;;;;;;;3.90;2.35;;;;;;;;;;4992012;28;20019;-82
2022/04/05 15:22:24;;;;;;;3.55;2.15;;;;;;;;;;4997931;28;20053;-80
2022/04/05 15:24:49;;;;;;;5.70;2.60;;;;;;;;;;4979405;28;20065;-81
2022/04/05 15:27:15;;;;;;;4.97;2.40;;;;;;;;;;4987174;28;20015;-84
2022/04/05 15:29:51;;;;;;;6.72;2.75;;;;;;;;;;4987937;28;20015;-82
2022/04/05 15:32:19;;;;;;;6.05;2.80;;;;;;;;;;4988074;28;20102;-84
2022/04/05 15:34:47;;;;;;;4.80;2.45;;;;;;;;;;4992224;28;20018;-84
2022/04/05 15:37:16;;;;;;;;;;;;;;;;;;4993337;28;20071;-84
2022/04/05 15:39:50;;;;;;;4.63;3.17;;;;;;;;;;4996479;28;19906;-85
2022/04/05 15:42:16;;;;;;;4.78;2.38;;;;;;;;;;4992242;28;20050;-84
2022/04/05 15:45:04;;;;;;;4.03;2.80;;;;;;;;;;4995376;28;20022;-85
2022/04/05 15:47:47;;;;;;;4.05;2.63;;;;;;;;;;4993298;28;20035;-84
2022/04/05 15:50:28;;;;;;;;;;;;;;;;;;;;;
2022/04/05 15:53:09;;;;;;;4.85;3.22;;;;;;;;;;4993343;28;20053;-86
2022/04/05 15:55:37;;;;;;;5.47;2.50;;;;;;;;;;4977425;28;20047;-83
2022/04/05 15:58:17;;;;;;;5.03;2.60;;;;;;;;;;4986078;28;20086;-84
2022/04/05 16:00:46;;;;;;;5.00;2.67;;;;;;;;;;4987762;28;20023;-83
2022/04/05 16:03:40;;;;;;;3.83;2.63;;;;;;;;;;4987527;28;20019;-82
2022/04/05 16:05:58;;;;;;;4.80;2.72;;;;;;;;;;4985536;28;20506;-83
2022/04/05 16:08:24;;;;;;;4.80;3.00;;;;;;;;;;4993714;28;20025;-81
2022/04/05 16:10:54;;;;;;;4.78;2.97;;;;;;;;;;5005083;28;20050;-82
2022/04/05 16:13:20;;;;;;;4.78;2.95;;;;;;;;;;4975284;28;20023;-80
2022/04/05 16:15:47;;;;;;;5.00;3.38;;;;;;;;;;4986318;28;20027;-82
2022/04/05 16:18:13;;;;;;;5.88;3.67;;;;;;;;;;4985933;28;20023;-83
2022/04/05 16:20:38;;;;;;;4.50;3.00;;;;;;;;;;4990693;28;20082;-82
2022/04/05 16:23:08;;;;;;;5.20;3.42;;;;;;;;;;4986731;28;20019;-83
2022/04/05 16:25:39;;;;;;;4.10;2.78;;;;;;;;;;4990159;28;20077;-84
2022/04/05 16:28:25;;;;;;;5.28;2.85;;;;;;;;;;4989861;28;20022;-82
2022/04/05 16:30:56;;;;;;;6.50;3.20;;;;;;;;;;4984485;28;20038;-83
2022/04/05 16:33:27;;;;;;;6.15;3.60;;;;;;;;;;4985225;28;20470;-83
2022/04/05 16:36:02;;;;;;;5.47;3.53;;;;;;;;;;4989987;28;20034;-85
2022/04/05 16:38:34;;;;;;;6.28;3.28;;;;;;;;;;4994701;28;20018;-84
2022/04/05 16:41:00;;;;;;;5.22;3.40;;;;;;;;;;4995680;28;20015;-83
2022/04/05 16:43:25;;;;;;;5.32;3.35;;;;;;;;;;4997032;28;20029;-83
2022/04/05 16:45:51;;;;;;;6.45;3.40;;;;;;;;;;4995770;28;20073;-82
2022/04/05 16:48:16;;;;;;;6.15;3.80;;;;;;;;;;4992436;28;20018;-83
2022/04/05 16:50:47;;;;;;;5.47;3.65;;;;;;;;;;4992564;28;20027;-83
2022/04/05 16:53:16;;;;;;;5.80;3.55;;;;;;;;;;4991724;28;20022;-83
2022/04/05 16:55:48;;;;;;;6.65;4.20;;;;;;;;;;4991911;28;20029;-83
2022/04/05 16:58:14;;;;;;;6.50;4.28;;;;;;;;;;4991605;28;20027;-82
2022/04/05 17:00:46;;;;;;;6.32;3.90;;;;;;;;;;4992924;28;20023;-83
2022/04/05 17:03:17;;;;;;;6.47;4.53;;;;;;;;;;4993705;28;20018;-83
2022/04/05 17:05:45;;;;;;;6.90;4.38;;;;;;;;;;4993821;28;20494;-83
2022/04/05 17:08:13;;;;;;;6.80;4.73;;;;;;;;;;4994760;28;20074;-83
2022/04/05 17:10:39;;;;;;;7.95;4.40;;;;;;;;;;4995028;28;20023;-83
2022/04/05 17:13:04;;;;;;;8.25;4.65;;;;;;;;;;4991192;28;20054;-83
2022/04/05 17:15:29;;;;;;;7.03;4.18;;;;;;;;;;4990459;28;20058;-83
2022/04/05 17:17:55;;;;;;;7.45;4.70;;;;;;;;;;4991304;28;20015;-83
2022/04/05 17:20:20;;;;;;;9.95;6.13;;;;;;;;;;4992577;28;20019;-84
2022/04/05 17:22:46;;;;;;;9.50;5.55;;;;;;;;;;4990761;28;20038;-83
2022/04/05 17:25:14;;;;;;;7.05;4.75;;;;;;;;;;4988920;28;20023;-83
2022/04/05 17:27:40;;;;;;;7.77;4.47;;;;;;;;;;4991551;28;20014;-84
2022/04/05 17:30:06;;;;;;;8.90;3.72;;;;;;;;;;4990590;28;20256;-82
2022/04/05 17:32:31;;;;;;;8.07;3.92;;;;;;;;;;4983160;28;20049;-82
2022/04/05 17:34:56;;;;;;;6.80;4.30;;;;;;;;;;4983855;28;20018;-82
2022/04/05 17:37:25;;;;;;;5.50;3.72;;;;;;;;;;4984989;28;20049;-82
2022/04/05 17:39:50;;;;;;;5.57;3.58;;;;;;;;;;4990014;28;20018;-82
2022/04/05 17:42:16;;;;;;;5.20;3.47;;;;;;;;;;4987714;28;20069;-80
2022/04/05 17:44:42;;;;;;;6.10;3.13;;;;;;;;;;4985528;28;20153;-82
2022/04/05 17:47:07;;;;;;;5.07;3.42;;;;;;;;;;4983620;28;20067;-82
2022/04/05 17:49:32;;;;;;;8.07;3.45;;;;;;;;;;4983063;28;20151;-81
2022/04/05 17:51:59;;;;;;;7.95;3.45;;;;;;;;;;4983174;28;20043;-82
2022/04/05 17:54:25;;;;;;;5.72;3.28;;;;;;;;;;4987207;28;20027;-82
2022/04/05 17:56:50;;;;;;;6.30;3.63;;;;;;;;;;4989136;28;20023;-82
2022/04/05 17:59:16;;;;;;;7.97;4.10;;;;;;;;;;4983687;28;20045;-82
2022/04/05 18:01:41;;;;;;;6.38;3.42;;;;;;;;;;4987091;28;20015;-81
2022/04/05 18:04:07;;;;;;;6.60;3.60;;;;;;;;;;4985800;28;20023;-81
2022/04/05 18:06:33;;;;;;;7.20;3.28;;;;;;;;;;4985453;28;20069;-82
2022/04/05 18:09:00;;;;;;;7.68;3.38;;;;;;;;;;4983329;28;20256;-81
2022/04/05 18:11:33;;;;;;;6.18;3.47;;;;;;;;;;4984640;28;20054;-81
2022/04/05 18:14:01;;;;;;;6.15;3.70;;;;;;;;;;4982517;28;20022;-81
2022/04/05 18:16:27;;;;;;;6.10;3.67;;;;;;;;;;4980206;28;20022;-81
2022/04/05 18:18:52;;;;;;;7.07;3.38;;;;;;;;;;4979337;28;20023;-82
2022/04/05 18:21:17;;;;;;;5.97;3.53;;;;;;;;;;4977858;28;20067;-81
2022/04/05 18:23:43;;;;;;;8.45;4.03;;;;;;;;;;4979437;28;20026;-81
2022/04/05 18:26:13;;;;;;;6.07;3.65;;;;;;;;;;4979549;28;20081;-82
2022/04/05 18:28:39;;;;;;;6.22;3.22;;;;;;;;;;4981153;28;20019;-81
2022/04/05 18:31:10;;;;;;;5.60;3.00;;;;;;;;;;4978232;28;20034;-82
2022/04/05 18:33:36;;;;;;;7.07;3.67;;;;;;;;;;4976702;28;20090;-82
2022/04/05 18:36:01;;;;;;;5.95;3.22;;;;;;;;;;4977303;28;20109;-81
2022/04/05 18:38:27;;;;;;;5.82;3.08;;;;;;;;;;4978713;28;20406;-81
2022/04/05 18:40:54;;;;;;;4.25;2.70;;;;;;;;;;4977129;28;20015;-81
2022/04/05 18:43:20;;;;;;;5.68;3.28;;;;;;;;;;4976513;28;20022;-82
2022/04/05 18:45:46;;;;;;;5.75;2.90;;;;;;;;;;4978109;28;20019;-82
2022/04/05 18:48:15;;;;;;;6.10;2.63;;;;;;;;;;4976984;28;20110;-81
2022/04/05 18:50:41;;;;;;;5.72;3.08;;;;;;;;;;4978136;28;20042;-80
2022/04/05 18:53:06;;;;;;;5.88;3.20;;;;;;;;;;4976670;28;20477;-81
2022/04/05 18:55:31;;;;;;;5.75;3.08;;;;;;;;;;4976351;28;20022;-81
2022/04/05 18:57:57;;;;;;;6.97;3.50;;;;;;;;;;4978676;28;20367;-81
2022/04/05 19:00:24;;;;;;;5.03;3.15;;;;;;;;;;4978708;28;20421;-81
2022/04/05 19:02:49;;;;;;;5.35;3.10;;;;;;;;;;4978966;28;20019;-82
2022/04/05 19:05:15;;;;;;;7.30;3.40;;;;;;;;;;4980875;28;20045;-82
2022/04/05 19:07:43;;;;;;;6.57;3.53;;;;;;;;;;4983051;28;20101;-82
2022/04/05 19:10:08;;;;;;;6.25;3.35;;;;;;;;;;4981087;28;20123;-82
2022/04/05 19:12:34;;;;;;;6.22;3.20;;;;;;;;;;4979984;28;20047;-82
2022/04/05 19:14:59;;;;;;;8.05;3.45;;;;;;;;;;4980897;28;20019;-82
2022/04/05 19:17:24;;;;;;;7.10;3.53;;;;;;;;;;4980657;28;20033;-82
2022/04/05 19:19:52;;;;;;;7.30;3.45;;;;;;;;;;4979865;28;20026;-84
2022/04/05 19:22:18;;;;;;;8.30;3.30;;;;;;;;;;4980006;28;20018;-83
2022/04/05 19:24:43;;;;;;;5.88;3.67;;;;;;;;;;4979253;28;20101;-82
2022/04/05 19:27:12;;;;;;;6.97;3.72;;;;;;;;;;4979897;28;20030;-82
2022/04/05 19:29:38;;;;;;;5.50;2.95;;;;;;;;;;4980408;28;20374;-82
2022/04/05 19:32:03;;;;;;;5.72;3.63;;;;;;;;;;4979200;28;20038;-81
2022/04/05 19:34:29;;;;;;;6.82;3.97;;;;;;;;;;4979775;28;20470;-82
2022/04/05 19:36:55;;;;;;;5.47;3.45;;;;;;;;;;4979910;28;20026;-82
2022/04/05 19:39:22;;;;;;;6.13;3.35;;;;;;;;;;4979500;28;20126;-81
2022/04/05 19:41:47;;;;;;;6.13;3.35;;;;;;;;;;4978931;28;20054;-81
2022/04/05 19:44:12;;;;;;;6.55;3.72;;;;;;;;;;4981809;28;20026;-83
2022/04/05 19:46:38;;;;;;;4.68;2.85;;;;;;;;;;4983762;28;20027;-83